Time;durP1;ratioP1;P1;durP2;ratioP2;P2;SDS_P1;SDS_P2;PMS_P1;PMS_P2;Temp;Humidity;BMP_temperature;BMP_pressure;BME280_temperature;BME280_humidity;BME280_pressure;Samples;Min_cycle;Max_cycle;Signal;HPM_P1;HPM_P2
2024/03/28 20:30:31;;;;;;;;;0.67;0.00;;;;;22.13;37.99;98733.38;5911209;23;45341;-73
2024/03/28 20:32:58;;;;;;;;;0.00;0.00;;;;;22.11;38.27;98724.88;4929902;28;45938;-79
2024/03/28 20:35:23;;;;;;;;;0.33;0.00;;;;;22.09;38.48;98715.56;4933210;28;45497;-80
2024/03/28 20:37:49;;;;;;;;;0.00;0.00;;;;;22.10;38.38;98715.31;4923940;28;45407;-74
2024/03/28 20:40:14;;;;;;;;;0.00;0.00;;;;;22.15;38.25;98727.84;4934432;28;45449;-75
2024/03/28 20:42:40;;;;;;;;;1.00;0.00;;;;;22.19;38.67;98721.06;4932285;28;46330;-74
2024/03/28 20:45:07;;;;;;;;;0.00;0.00;;;;;22.24;38.26;98717.72;4936674;28;45405;-75
2024/03/28 20:47:33;;;;;;;;;0.00;0.00;;;;;22.11;38.40;98711.63;4936736;28;45349;-75
2024/03/28 20:49:59;;;;;;;;;0.00;0.00;;;;;22.25;38.80;98728.06;4931841;28;45397;-74
2024/03/28 20:52:25;;;;;;;;;0.00;0.00;;;;;22.27;38.15;98733.16;4936286;28;45425;-75
2024/03/28 20:54:51;;;;;;;;;1.00;0.00;;;;;22.24;38.31;98737.06;4936577;28;45385;-74
2024/03/28 20:57:16;;;;;;;;;0.00;0.00;;;;;22.29;38.25;98746.97;4935644;28;45392;-75
2024/03/28 20:59:42;;;;;;;;;0.00;0.00;;;;;22.31;38.44;98752.00;4936882;28;45394;-75
2024/03/28 21:02:08;;;;;;;;;2.00;0.00;;;;;22.06;38.87;98715.00;4936184;28;47096;-74
2024/03/28 21:04:35;;;;;;;;;0.00;0.00;;;;;22.22;38.74;98739.16;4937165;28;45586;-74
2024/03/28 21:12:23;;;;;;;;;0.00;0.00;;;;;22.24;38.52;98745.00;4940169;28;45398;-79
2024/03/28 21:14:50;;;;;;;;;0.00;0.00;;;;;22.34;38.76;98768.25;4940274;28;45385;-79
2024/03/28 21:17:16;;;;;;;;;0.67;0.67;;;;;22.05;38.43;98716.00;4939565;28;45276;-82
2024/03/28 21:19:43;;;;;;;;;0.00;0.00;;;;;22.33;38.41;98763.97;4940175;28;45517;-82
2024/03/28 21:22:11;;;;;;;;;0.00;0.00;;;;;22.32;38.44;98756.28;4939882;28;45473;-81
2024/03/28 21:24:36;;;;;;;;;1.67;0.00;;;;;22.27;38.41;98743.75;4939842;28;45377;-75
2024/03/28 21:27:05;;;;;;;;;0.00;0.00;;;;;22.25;38.91;98751.13;4940393;28;45533;-84
2024/03/28 21:29:31;;;;;;;;;0.00;0.00;;;;;22.29;38.38;98758.38;4940527;28;45569;-85
2024/03/28 21:31:57;;;;;;;;;0.33;0.00;;;;;22.25;38.46;98754.56;4939525;28;45342;-84
2024/03/28 21:34:22;;;;;;;;;1.67;0.00;;;;;22.39;38.72;98776.31;4939902;28;45381;-84
2024/03/28 21:36:48;;;;;;;;;1.00;0.00;;;;;22.40;39.00;98783.22;4940538;28;45358;-84
2024/03/28 21:39:15;;;;;;;;;2.00;0.33;;;;;22.39;38.53;98781.59;4940357;28;45406;-84
2024/03/28 21:41:41;;;;;;;;;0.00;0.00;;;;;22.42;38.42;98779.53;4926818;28;45604;-84
2024/03/28 21:44:06;;;;;;;;;0.00;0.00;;;;;22.34;38.91;98770.09;4940034;28;45491;-84
2024/03/28 21:46:32;;;;;;;;;0.00;0.00;;;;;22.43;38.45;98787.22;4939041;28;45552;-80
2024/03/28 21:48:58;;;;;;;;;0.33;0.00;;;;;22.39;38.53;98786.91;4940034;28;45324;-80
2024/03/28 21:51:23;;;;;;;;;0.00;0.00;;;;;22.29;38.74;98765.50;4939511;28;45519;-79
2024/03/28 21:53:49;;;;;;;;;1.33;0.00;;;;;22.39;38.55;98784.25;4939633;28;45276;-79
2024/03/28 21:56:19;;;;;;;;;0.00;0.00;;;;;22.46;38.35;98797.38;4939328;28;45392;-79
2024/03/28 21:58:45;;;;;;;;;2.00;0.00;;;;;22.39;38.67;98780.81;4940286;28;45468;-79
2024/03/28 22:01:11;;;;;;;;;1.00;1.00;;;;;22.44;38.90;98785.41;4938892;28;47573;-76
2024/03/28 22:03:38;;;;;;;;;1.00;1.00;;;;;22.47;38.42;98790.22;4936556;28;45378;-74
2024/03/28 22:06:04;;;;;;;;;0.00;0.00;;;;;22.15;38.84;98728.66;4939191;28;45328;-75
2024/03/28 22:08:34;;;;;;;;;0.00;0.00;;;;;22.47;38.33;98782.28;4934692;28;45607;-74
2024/03/28 22:11:06;;;;;;;;;1.00;0.00;;;;;22.47;38.84;98772.50;4919874;28;47176;-73
2024/03/28 22:13:32;;;;;;;;;0.00;0.00;;;;;22.47;39.02;98782.28;4920009;28;45324;-76
2024/03/28 22:15:59;;;;;;;;;1.00;0.00;;;;;22.40;38.70;98777.13;4919630;28;45381;-74
